createdAt,value
2023-01-08T00:00:09.757Z,99081.31
2023-01-08T00:02:57.132Z,99076.09
2023-01-08T00:05:24.129Z,99071.81
2023-01-08T00:07:51.343Z,99072.66
2023-01-08T00:10:18.236Z,99062.25
2023-01-08T00:12:45.414Z,99063.94
2023-01-08T00:15:12.386Z,99060.47
2023-01-08T00:17:39.687Z,99049.19
2023-01-08T00:20:06.991Z,99050.88
2023-01-08T00:22:34.185Z,99051.72
2023-01-08T00:25:01.036Z,99059.53
2023-01-08T00:27:28.297Z,99057.78
2023-01-08T00:29:55.279Z,99047.38
2023-01-08T00:32:22.479Z,99055.19
2023-01-08T00:34:49.475Z,99049.97
2023-01-08T00:37:20.225Z,99052.56
2023-01-08T00:39:47.056Z,99051.72
2023-01-08T00:42:14.365Z,99054.34
2023-01-08T00:44:41.300Z,99052.63
2023-01-08T00:47:08.549Z,99051.72
2023-01-08T00:49:35.427Z,99043.91
2023-01-08T00:52:02.627Z,99042.97
2023-01-08T00:54:29.812Z,99046.44
2023-01-08T00:56:56.965Z,99055.13
2023-01-08T00:59:23.897Z,99053.38
2023-01-08T01:01:52.964Z,99051.63
2023-01-08T01:04:20.819Z,99045.50
2023-01-08T01:06:48.055Z,99042.91
2023-01-08T01:09:15.022Z,99040.31
2023-01-08T01:11:42.317Z,99041.19
2023-01-08T01:14:09.909Z,99037.69
2023-01-08T01:16:37.261Z,99034.28
2023-01-08T01:19:04.259Z,99033.44
2023-01-08T01:21:32.532Z,99032.53
2023-01-08T01:24:02.198Z,99027.31
2023-01-08T01:26:30.513Z,99021.28
2023-01-08T01:28:58.430Z,99011.72
2023-01-08T01:31:27.105Z,99022.19
2023-01-08T01:33:54.125Z,99012.66
2023-01-08T01:36:26.091Z,99014.44
2023-01-08T01:38:55.745Z,99012.75
2023-01-08T01:41:28.661Z,99008.44
2023-01-08T01:43:58.035Z,99011.09
2023-01-08T01:46:38.793Z,99001.63
2023-01-08T01:49:10.687Z,99003.41
2023-01-08T01:51:42.430Z,98999.06
2023-01-08T01:54:13.037Z,98992.16
2023-01-08T01:56:40.945Z,98984.38
2023-01-08T01:59:08.015Z,98980.94
2023-01-08T02:01:35.719Z,98981.84
2023-01-08T02:04:03.036Z,98978.50
2023-01-08T02:06:42.681Z,98986.41
2023-01-08T02:09:37.551Z,98983.84
2023-01-08T02:12:18.748Z,98983.00
2023-01-08T02:14:52.307Z,98976.91
2023-01-08T02:17:45.589Z,98972.56
2023-01-08T02:20:32.709Z,98959.59
2023-01-08T02:23:14.454Z,98962.19
2023-01-08T02:26:06.455Z,98964.84
2023-01-08T02:28:40.133Z,98957.09
2023-01-08T02:31:07.635Z,98952.78
2023-01-08T02:33:35.921Z,98959.75
2023-01-08T02:36:35.873Z,98954.59
2023-01-08T02:39:20.981Z,98953.78
2023-01-08T02:42:04.482Z,98957.22
2023-01-08T02:44:34.446Z,98958.13
2023-01-08T02:47:05.875Z,98960.72
2023-01-08T02:49:38.580Z,98953.88
2023-01-08T02:52:07.553Z,98952.16
2023-01-08T02:54:36.023Z,98953.09
2023-01-08T02:57:08.319Z,98947.97
2023-01-08T02:59:37.268Z,98947.13
2023-01-08T03:02:04.770Z,98939.38
2023-01-08T03:04:39.588Z,98939.38
2023-01-08T03:07:06.511Z,98929.88
2023-01-08T03:09:34.609Z,98930.78
2023-01-08T03:12:24.693Z,98921.28
2023-01-08T03:15:01.330Z,98926.44
2023-01-08T03:17:35.936Z,98923.81
2023-01-08T03:20:09.251Z,98918.59
2023-01-08T03:22:40.872Z,98923.75
2023-01-08T03:25:10.068Z,98928.00
2023-01-08T03:27:42.024Z,98921.91
2023-01-08T03:30:11.473Z,98923.56
2023-01-08T03:32:42.133Z,98921.78
2023-01-08T03:35:12.481Z,98910.50
2023-01-08T03:37:44.225Z,98914.84
2023-01-08T03:40:17.064Z,98918.28
2023-01-08T03:42:44.061Z,98906.94
2023-01-08T03:45:11.447Z,98909.53
2023-01-08T03:47:40.608Z,98902.53
2023-01-08T03:50:14.547Z,98907.69
2023-01-08T03:52:41.478Z,98900.69
2023-01-08T03:55:09.118Z,98911.94
2023-01-08T03:57:36.049Z,98905.00
2023-01-08T04:00:04.589Z,98911.91
2023-01-08T04:02:31.684Z,98902.38
2023-01-08T04:04:58.924Z,98897.13
2023-01-08T04:07:25.876Z,98888.47
2023-01-08T04:09:53.112Z,98882.38
2023-01-08T04:12:20.041Z,98883.16
2023-01-08T04:14:47.299Z,98888.31
2023-01-08T04:17:14.616Z,98890.91
2023-01-08T04:19:41.744Z,98889.16
2023-01-08T04:22:10.850Z,98884.00
2023-01-08T04:24:38.368Z,98878.81
2023-01-08T04:27:05.612Z,98884.97
2023-01-08T04:29:32.863Z,98874.50
2023-01-08T04:32:00.451Z,98883.13
2023-01-08T04:34:27.688Z,98887.47
2023-01-08T04:36:54.578Z,98868.34
2023-01-08T04:39:21.751Z,98871.75
2023-01-08T04:41:48.602Z,98865.63
2023-01-08T04:44:15.834Z,98867.31
2023-01-08T04:46:42.822Z,98858.66
2023-01-08T04:49:11.657Z,98857.75
2023-01-08T04:51:38.751Z,98862.94
2023-01-08T04:54:06.277Z,98857.69
2023-01-08T04:56:33.197Z,98866.34
2023-01-08T04:59:00.486Z,98875.84
2023-01-08T05:01:28.464Z,98866.28
2023-01-08T05:03:56.521Z,98873.22
2023-01-08T05:06:24.002Z,98879.31
2023-01-08T05:08:51.256Z,98882.75
2023-01-08T05:11:18.263Z,98879.28
2023-01-08T05:13:49.064Z,98877.50
2023-01-08T05:16:16.313Z,98868.81
2023-01-08T05:18:44.582Z,98866.28
2023-01-08T05:21:11.919Z,98868.88
2023-01-08T05:23:39.520Z,98873.25
2023-01-08T05:26:07.429Z,98866.31
2023-01-08T05:28:34.987Z,98874.16
2023-01-08T05:31:01.933Z,98881.09
2023-01-08T05:33:29.189Z,98875.91
2023-01-08T05:35:56.680Z,98865.56
2023-01-08T05:38:23.948Z,98867.31
2023-01-08T05:40:54.330Z,98873.41
2023-01-08T05:43:21.744Z,98866.47
2023-01-08T05:45:48.595Z,98860.47
2023-01-08T05:48:15.816Z,98870.06
2023-01-08T05:50:42.675Z,98863.06
2023-01-08T05:53:10.315Z,98860.53
2023-01-08T05:55:37.255Z,98857.88
2023-01-08T05:58:05.429Z,98855.28
2023-01-08T06:00:34.447Z,98859.63
2023-01-08T06:03:01.758Z,98857.03
2023-01-08T06:05:30.798Z,98849.25
2023-01-08T06:07:58.243Z,98855.41
2023-01-08T06:10:25.487Z,98858.00
2023-01-08T06:12:52.738Z,98856.31
2023-01-08T06:15:19.737Z,98856.31
2023-01-08T06:17:46.876Z,98857.16
2023-01-08T06:20:13.805Z,98858.00
2023-01-08T06:22:40.979Z,98845.78
2023-01-08T06:25:08.116Z,98854.50
2023-01-08T06:27:35.288Z,98848.47
2023-01-08T06:30:02.133Z,98853.63
2023-01-08T06:32:29.388Z,98847.53
2023-01-08T06:34:56.281Z,98849.22
2023-01-08T06:37:23.449Z,98845.00
2023-01-08T06:39:50.361Z,98840.59
2023-01-08T06:42:17.625Z,98844.94
2023-01-08T06:44:44.569Z,98837.13
2023-01-08T06:47:11.769Z,98841.41
2023-01-08T06:49:38.727Z,98849.09
2023-01-08T06:52:05.942Z,98850.78
2023-01-08T06:54:32.840Z,98841.22
2023-01-08T06:57:00.072Z,98844.63
2023-01-08T06:59:26.957Z,98845.41
2023-01-08T07:01:54.531Z,98848.81
2023-01-08T07:04:21.494Z,98845.31
2023-01-08T07:06:48.741Z,98848.75
2023-01-08T07:09:15.933Z,98840.03
2023-01-08T07:11:43.208Z,98847.78
2023-01-08T07:14:10.148Z,98848.69
2023-01-08T07:16:37.539Z,98842.53
2023-01-08T07:19:04.654Z,98847.72
2023-01-08T07:21:32.118Z,98852.00
2023-01-08T07:23:59.764Z,98840.69
2023-01-08T07:26:27.775Z,98836.31
2023-01-08T07:28:54.680Z,98851.84
2023-01-08T07:31:22.212Z,98849.19
2023-01-08T07:33:49.215Z,98849.19
2023-01-08T07:36:17.930Z,98847.41
2023-01-08T07:38:44.796Z,98852.56
2023-01-08T07:41:13.368Z,98847.34
2023-01-08T07:43:40.275Z,98844.66
2023-01-08T07:46:07.535Z,98835.06
2023-01-08T07:48:34.571Z,98848.94
2023-01-08T07:51:06.508Z,98847.19
2023-01-08T07:53:33.999Z,98840.22
2023-01-08T07:56:05.924Z,98841.09
2023-01-08T07:58:33.076Z,98841.09
2023-01-08T08:01:00.853Z,98837.59
2023-01-08T08:03:27.974Z,98839.28
2023-01-08T08:05:55.207Z,98835.75
2023-01-08T08:08:22.081Z,98833.06
2023-01-08T08:10:49.263Z,98831.31
2023-01-08T08:13:16.164Z,98815.66
2023-01-08T08:15:43.483Z,98827.69
2023-01-08T08:18:11.061Z,98820.63
2023-01-08T08:20:39.322Z,98818.81
2023-01-08T08:23:09.548Z,98802.22
2023-01-08T08:25:37.348Z,98814.31
2023-01-08T08:28:05.146Z,98811.59
2023-01-08T08:30:34.867Z,98808.91
2023-01-08T08:33:04.124Z,98804.47
2023-01-08T08:35:32.516Z,98802.66
2023-01-08T08:38:00.036Z,98801.75
2023-01-08T08:40:27.874Z,98800.81
2023-01-08T08:42:59.765Z,98801.66
2023-01-08T08:45:27.880Z,98791.13
2023-01-08T08:47:54.972Z,98790.19
2023-01-08T08:50:23.023Z,98792.69
2023-01-08T08:52:50.020Z,98796.13
2023-01-08T08:55:17.662Z,98786.53
2023-01-08T08:57:46.286Z,98790.84
2023-01-08T09:00:14.784Z,98790.84
2023-01-08T09:02:41.796Z,98790.81
2023-01-08T09:05:09.678Z,98774.16
2023-01-08T09:07:36.667Z,98776.69
2023-01-08T09:10:04.721Z,98771.31
2023-01-08T09:12:31.587Z,98772.09
2023-01-08T09:14:58.821Z,98772.88
2023-01-08T09:17:26.102Z,98765.72
2023-01-08T09:19:53.571Z,98756.88
2023-01-08T09:22:20.740Z,98754.91
2023-01-08T09:24:48.071Z,98753.97
2023-01-08T09:27:15.453Z,98746.88
2023-01-08T09:29:42.771Z,98736.25
2023-01-08T09:32:10.118Z,98740.34
2023-01-08T09:34:38.306Z,98740.16
2023-01-08T09:37:06.145Z,98732.13
2023-01-08T09:39:33.875Z,98729.38
2023-01-08T09:42:06.053Z,98724.06
2023-01-08T09:44:40.717Z,98729.25
2023-01-08T09:47:27.886Z,98727.34
2023-01-08T09:50:00.244Z,98723.72
2023-01-08T09:52:27.334Z,98715.69
2023-01-08T09:54:54.844Z,98717.34
2023-01-08T09:57:22.693Z,98715.69
2023-01-08T09:59:50.555Z,98721.03
2023-01-08T10:02:25.048Z,98715.81
2023-01-08T10:04:58.537Z,98698.59
2023-01-08T10:07:27.393Z,98704.06
2023-01-08T10:09:55.058Z,98695.56
2023-01-08T10:12:31.207Z,98702.69
2023-01-08T10:15:13.846Z,98699.25
2023-01-08T10:17:46.537Z,98701.81
2023-01-08T10:20:19.609Z,98685.28
2023-01-08T10:22:50.211Z,98679.97
2023-01-08T10:25:27.412Z,98679.97
2023-01-08T10:27:59.207Z,98680.00
2023-01-08T10:30:40.132Z,98673.97
2023-01-08T10:33:45.328Z,98668.81
2023-01-08T10:36:17.349Z,98665.31
2023-01-08T10:38:56.167Z,98659.22
2023-01-08T10:41:23.508Z,98658.41
2023-01-08T10:44:01.836Z,98650.59
2023-01-08T10:46:35.943Z,98641.75
2023-01-08T10:49:05.685Z,98645.13
2023-01-08T10:51:33.558Z,98637.13
2023-01-08T10:54:13.999Z,98641.38
2023-01-08T10:56:43.844Z,98631.69
2023-01-08T10:59:20.810Z,98635.09
2023-01-08T11:01:49.395Z,98627.13
2023-01-08T11:04:24.091Z,98621.25
2023-01-08T11:06:51.342Z,98609.88
2023-01-08T11:09:27.967Z,98621.13
2023-01-08T11:11:55.594Z,98617.50
2023-01-08T11:14:36.006Z,98618.50
2023-01-08T11:17:11.412Z,98618.44
2023-01-08T11:19:39.989Z,98618.50
2023-01-08T11:22:19.596Z,98627.19
2023-01-08T11:24:50.391Z,98627.31
2023-01-08T11:27:28.164Z,98616.13
2023-01-08T11:30:14.695Z,98611.94
2023-01-08T11:33:09.448Z,98606.81
2023-01-08T11:35:48.778Z,98609.56
2023-01-08T11:38:16.693Z,98610.53
2023-01-08T11:41:13.688Z,98601.81
2023-01-08T11:44:09.679Z,98608.84
2023-01-08T11:46:56.365Z,98606.28
2023-01-08T11:49:40.229Z,98617.59
2023-01-08T11:52:07.062Z,98615.78
2023-01-08T11:54:40.089Z,98604.47
2023-01-08T11:57:35.009Z,98603.63
2023-01-08T12:00:14.265Z,98616.63
2023-01-08T12:02:54.814Z,98611.53
2023-01-08T12:05:24.319Z,98610.66
2023-01-08T12:08:20.490Z,98597.63
2023-01-08T12:11:06.442Z,98609.75
2023-01-08T12:13:47.961Z,98602.75
2023-01-08T12:16:27.550Z,98593.19
2023-01-08T12:19:06.597Z,98594.78
2023-01-08T12:21:44.643Z,98588.72
2023-01-08T12:24:14.370Z,98592.25
2023-01-08T12:27:09.416Z,98588.75
2023-01-08T12:29:52.498Z,98579.94
2023-01-08T12:32:27.603Z,98583.31
2023-01-08T12:35:10.719Z,98572.09
2023-01-08T12:38:11.002Z,98548.78
2023-01-08T12:40:46.169Z,98548.00
2023-01-08T12:43:19.072Z,98543.00
2023-01-08T12:45:48.698Z,98525.72
2023-01-08T12:48:23.180Z,98523.28
2023-01-08T12:50:59.818Z,98514.75
2023-01-08T12:53:34.882Z,98509.75
2023-01-08T12:56:21.336Z,98501.22
2023-01-08T12:59:14.439Z,98503.00
2023-01-08T13:02:08.979Z,98489.03
2023-01-08T13:04:41.613Z,98487.38
2023-01-08T13:07:32.290Z,98476.91
2023-01-08T13:10:20.347Z,98480.38
2023-01-08T13:12:51.607Z,98470.66
2023-01-08T13:15:22.344Z,98477.34
2023-01-08T13:17:55.156Z,98492.81
2023-01-08T13:20:29.047Z,98480.38
2023-01-08T13:23:01.719Z,98481.06
2023-01-08T13:25:36.395Z,98480.34
2023-01-08T13:28:25.146Z,98481.19
2023-01-08T13:30:52.537Z,98478.75
2023-01-08T13:33:47.207Z,98477.81
2023-01-08T13:36:29.399Z,98465.72
2023-01-08T13:39:10.149Z,98472.69
2023-01-08T13:41:42.608Z,98472.69
2023-01-08T13:44:20.578Z,98469.28
2023-01-08T13:47:04.740Z,98474.50
2023-01-08T13:49:46.681Z,98484.97
2023-01-08T13:52:42.764Z,98473.63
2023-01-08T13:55:15.190Z,98471.81
2023-01-08T13:57:46.574Z,98466.50
2023-01-08T14:00:43.200Z,98463.78
2023-01-08T14:03:35.334Z,98463.72
2023-01-08T14:06:06.953Z,98467.16
2023-01-08T14:08:34.463Z,98460.00
2023-01-08T14:11:04.322Z,98460.78
2023-01-08T14:13:35.755Z,98465.03
2023-01-08T14:16:05.972Z,98464.03
2023-01-08T14:18:33.397Z,98456.09
2023-01-08T14:21:00.350Z,98457.81
2023-01-08T14:23:32.118Z,98456.88
2023-01-08T14:26:06.408Z,98456.84
2023-01-08T14:28:33.622Z,98447.41
2023-01-08T14:31:00.798Z,98455.31
2023-01-08T14:33:34.752Z,98449.22
2023-01-08T14:36:03.952Z,98449.19
2023-01-08T14:38:31.229Z,98450.97
2023-01-08T14:41:03.813Z,98448.41
2023-01-08T14:43:38.870Z,98448.31
2023-01-08T14:46:32.245Z,98447.50
2023-01-08T14:48:59.635Z,98444.88
2023-01-08T14:51:29.583Z,98447.47
2023-01-08T14:54:03.719Z,98443.94
2023-01-08T14:56:33.530Z,98437.88
2023-01-08T14:59:07.428Z,98437.78
2023-01-08T15:01:35.186Z,98438.72
2023-01-08T15:04:06.893Z,98444.00
2023-01-08T15:06:34.034Z,98439.69
2023-01-08T15:09:01.382Z,98441.44
2023-01-08T15:11:32.127Z,98439.69
2023-01-08T15:14:00.770Z,98434.34
2023-01-08T15:16:44.622Z,98433.50
2023-01-08T15:19:46.608Z,98436.97
2023-01-08T15:22:19.001Z,98434.34
2023-01-08T15:24:58.328Z,98432.69
2023-01-08T15:27:25.689Z,98431.84
2023-01-08T15:29:59.897Z,98431.03
2023-01-08T15:32:31.373Z,98434.63
2023-01-08T15:34:58.951Z,98438.16
2023-01-08T15:37:25.865Z,98439.03
2023-01-08T15:39:53.755Z,98440.81
2023-01-08T15:42:42.360Z,98439.97
2023-01-08T15:45:13.394Z,98443.41
2023-01-08T15:47:40.285Z,98455.56
2023-01-08T15:50:07.870Z,98443.38
2023-01-08T15:52:37.784Z,98457.19
2023-01-08T15:55:05.638Z,98453.69
2023-01-08T15:57:32.791Z,98457.16
2023-01-08T16:00:00.048Z,98459.72
2023-01-08T16:02:27.079Z,98453.56
2023-01-08T16:04:56.066Z,98453.56
2023-01-08T16:07:23.301Z,98454.41
2023-01-08T16:09:50.514Z,98445.63
2023-01-08T16:12:17.383Z,98445.72
2023-01-08T16:14:44.605Z,98440.56
2023-01-08T16:17:11.644Z,98436.22
2023-01-08T16:19:38.918Z,98433.59
2023-01-08T16:22:05.933Z,98433.59
2023-01-08T16:24:34.136Z,98425.81
2023-01-08T16:27:01.236Z,98424.03
2023-01-08T16:29:28.708Z,98418.88
2023-01-08T16:31:56.017Z,98407.63
2023-01-08T16:34:24.211Z,98419.75
2023-01-08T16:36:51.379Z,98423.22
2023-01-08T16:39:19.383Z,98414.59
2023-01-08T16:41:47.835Z,98420.69
2023-01-08T16:44:20.871Z,98416.28
2023-01-08T16:46:48.459Z,98411.84
2023-01-08T16:49:16.112Z,98419.75
2023-01-08T16:51:44.586Z,98408.56
2023-01-08T16:54:13.345Z,98406.81
2023-01-08T16:56:40.651Z,98405.16
2023-01-08T16:59:18.270Z,98401.66
2023-01-08T17:01:49.625Z,98397.44
2023-01-08T17:04:17.484Z,98404.41
2023-01-08T17:06:44.695Z,98396.66
2023-01-08T17:09:12.001Z,98384.63
2023-01-08T17:11:38.969Z,98385.56
2023-01-08T17:14:06.253Z,98381.50
2023-01-08T17:16:33.255Z,98381.66
2023-01-08T17:19:00.504Z,98389.63
2023-01-08T17:21:27.354Z,98385.44
2023-01-08T17:23:54.581Z,98382.06
2023-01-08T17:26:21.634Z,98376.19
2023-01-08T17:28:48.921Z,98376.31
2023-01-08T17:31:20.644Z,98370.38
2023-01-08T17:33:52.306Z,98367.94
2023-01-08T17:36:24.936Z,98357.72
2023-01-08T17:38:55.062Z,98361.31
2023-01-08T17:41:41.352Z,98364.06
2023-01-08T17:44:11.871Z,98363.50
2023-01-08T17:46:45.352Z,98355.06
2023-01-08T17:49:14.288Z,98359.50
2023-01-08T17:51:42.457Z,98354.44
2023-01-08T17:54:15.277Z,98362.31
2023-01-08T17:56:42.559Z,98357.94
2023-01-08T17:59:14.295Z,98349.34
2023-01-08T18:01:41.789Z,98341.59
2023-01-08T18:04:09.112Z,98333.81
2023-01-08T18:06:36.163Z,98336.50
2023-01-08T18:09:04.455Z,98339.25
2023-01-08T18:11:31.576Z,98335.94
2023-01-08T18:14:01.526Z,98341.41
2023-01-08T18:16:30.084Z,98340.72
2023-01-08T18:18:58.372Z,98340.06
2023-01-08T18:21:26.680Z,98338.47
2023-01-08T18:23:54.270Z,98328.13
2023-01-08T18:26:22.249Z,98321.19
2023-01-08T18:28:49.496Z,98322.09
2023-01-08T18:31:16.479Z,98313.47
2023-01-08T18:33:44.137Z,98317.00
2023-01-08T18:36:12.973Z,98319.75
2023-01-08T18:38:42.673Z,98320.69
2023-01-08T18:41:34.293Z,98321.72
2023-01-08T18:44:02.748Z,98319.28
2023-01-08T18:46:29.771Z,98306.41
2023-01-08T18:48:57.065Z,98317.75
2023-01-08T18:51:24.239Z,98313.47
2023-01-08T18:53:51.528Z,98306.59
2023-01-08T18:56:33.401Z,98312.75
2023-01-08T18:59:01.109Z,98315.38
2023-01-08T19:01:28.672Z,98314.56
2023-01-08T19:03:56.373Z,98315.50
2023-01-08T19:06:23.763Z,98314.69
2023-01-08T19:08:51.668Z,98306.03
2023-01-08T19:11:18.776Z,98306.00
2023-01-08T19:13:46.031Z,98309.56
2023-01-08T19:16:13.875Z,98311.41
2023-01-08T19:18:41.458Z,98312.25
2023-01-08T19:21:10.025Z,98310.56
2023-01-08T19:23:37.284Z,98313.16
2023-01-08T19:26:08.517Z,98318.41
2023-01-08T19:28:36.272Z,98317.56
2023-01-08T19:31:03.311Z,98328.81
2023-01-08T19:33:30.902Z,98334.84
2023-01-08T19:36:03.227Z,98330.47
2023-01-08T19:38:30.486Z,98334.66
2023-01-08T19:41:00.252Z,98332.16
2023-01-08T19:43:42.754Z,98344.44
2023-01-08T19:46:11.892Z,98333.09
2023-01-08T19:48:40.348Z,98333.81
2023-01-08T19:51:11.899Z,98340.56
2023-01-08T19:53:40.049Z,98339.47
2023-01-08T19:56:13.272Z,98341.91
2023-01-08T19:58:40.827Z,98339.13
2023-01-08T20:01:16.435Z,98336.34
2023-01-08T20:03:44.597Z,98336.03
2023-01-08T20:06:16.370Z,98334.09
2023-01-08T20:08:46.144Z,98327.78
2023-01-08T20:11:15.606Z,98329.38
2023-01-08T20:13:43.757Z,98341.34
2023-01-08T20:16:17.345Z,98335.09
2023-01-08T20:18:44.667Z,98333.13
2023-01-08T20:21:16.854Z,98332.19
2023-01-08T20:23:45.228Z,98336.50
2023-01-08T20:26:18.344Z,98333.84
2023-01-08T20:28:46.565Z,98325.06
2023-01-08T20:31:16.058Z,98330.25
2023-01-08T20:33:44.432Z,98330.13
2023-01-08T20:36:17.474Z,98322.28
2023-01-08T20:38:45.705Z,98336.19
2023-01-08T20:41:13.133Z,98328.38
2023-01-08T20:43:41.104Z,98320.50
2023-01-08T20:46:10.403Z,98318.72
2023-01-08T20:48:47.039Z,98313.41
2023-01-08T20:51:14.996Z,98304.72
2023-01-08T20:53:42.332Z,98297.72
2023-01-08T20:56:12.750Z,98291.56
2023-01-08T20:58:42.294Z,98286.34
2023-01-08T21:01:10.992Z,98277.00
2023-01-08T21:03:39.808Z,98271.69
2023-01-08T21:06:08.999Z,98263.88
2023-01-08T21:08:37.035Z,98270.88
2023-01-08T21:11:06.231Z,98267.41
2023-01-08T21:13:34.171Z,98264.81
2023-01-08T21:16:09.734Z,98252.63
2023-01-08T21:18:40.476Z,98245.63
2023-01-08T21:21:08.142Z,98249.88
2023-01-08T21:23:35.423Z,98242.00
2023-01-08T21:26:05.717Z,98248.06
2023-01-08T21:28:33.429Z,98251.38
2023-01-08T21:31:06.987Z,98246.13
2023-01-08T21:33:34.471Z,98241.66
2023-01-08T21:36:07.104Z,98247.66
2023-01-08T21:38:35.016Z,98242.28
2023-01-08T21:41:04.438Z,98244.88
2023-01-08T21:43:50.776Z,98231.09
2023-01-08T21:46:17.957Z,98231.22
2023-01-08T21:48:50.011Z,98228.53
2023-01-08T21:51:36.073Z,98226.78
2023-01-08T21:54:03.860Z,98236.97
2023-01-08T21:56:31.310Z,98229.94
2023-01-08T21:58:58.719Z,98222.75
2023-01-08T22:01:25.713Z,98228.66
2023-01-08T22:03:53.046Z,98219.75
2023-01-08T22:06:19.994Z,98210.81
2023-01-08T22:08:51.733Z,98212.38
2023-01-08T22:11:19.227Z,98206.97
2023-01-08T22:13:46.400Z,98193.81
2023-01-08T22:16:13.789Z,98196.28
2023-01-08T22:18:41.334Z,98195.44
2023-01-08T22:21:11.002Z,98188.47
2023-01-08T22:23:38.523Z,98175.41
2023-01-08T22:26:07.142Z,98171.03
2023-01-08T22:28:34.936Z,98179.00
2023-01-08T22:31:12.411Z,98178.16
2023-01-08T22:33:40.391Z,98186.03
2023-01-08T22:36:10.541Z,98181.72
2023-01-08T22:38:38.299Z,98183.44
2023-01-08T22:41:10.921Z,98178.16
2023-01-08T22:43:38.053Z,98179.16
2023-01-08T22:46:05.086Z,98182.63
2023-01-08T22:48:32.554Z,98175.66
2023-01-08T22:51:03.543Z,98153.88
2023-01-08T22:53:30.708Z,98154.78
2023-01-08T22:55:57.602Z,98153.09
2023-01-08T22:58:24.908Z,98149.75
2023-01-08T23:00:51.774Z,98136.75
2023-01-08T23:03:18.993Z,98144.63
2023-01-08T23:05:45.855Z,98135.94
2023-01-08T23:08:13.051Z,98134.19
2023-01-08T23:10:40.038Z,98124.50
2023-01-08T23:13:07.298Z,98114.84
2023-01-08T23:15:34.241Z,98104.41
2023-01-08T23:18:01.409Z,98097.63
2023-01-08T23:20:28.264Z,98101.22
2023-01-08T23:22:55.421Z,98101.34
2023-01-08T23:25:22.241Z,98097.78
2023-01-08T23:27:49.434Z,98087.03
2023-01-08T23:30:16.586Z,98085.66
2023-01-08T23:32:43.785Z,98077.13
2023-01-08T23:35:10.735Z,98072.78
2023-01-08T23:37:38.015Z,98080.06
2023-01-08T23:40:05.263Z,98087.56
2023-01-08T23:42:32.545Z,98077.00
2023-01-08T23:44:59.433Z,98081.31
2023-01-08T23:47:26.613Z,98083.13
2023-01-08T23:49:53.489Z,98086.00
2023-01-08T23:52:20.696Z,98091.38
2023-01-08T23:54:47.684Z,98087.91
2023-01-08T23:57:14.888Z,98089.00
2023-01-08T23:59:41.856Z,98087.72
